sensor_id;sensor_type;location;lat;lon;timestamp;temperature;humidity
17437;DHT22;70275;52.198;5.422;2023-05-23T00:00:13;14.80;83.10
17437;DHT22;70275;52.198;5.422;2023-05-23T00:02:45;14.70;83.10
17437;DHT22;70275;52.198;5.422;2023-05-23T00:05:14;14.70;83.10
17437;DHT22;70275;52.198;5.422;2023-05-23T00:07:43;14.50;83.10
17437;DHT22;70275;52.198;5.422;2023-05-23T00:10:13;14.60;83.10
17437;DHT22;70275;52.198;5.422;2023-05-23T00:12:41;14.50;83.10
17437;DHT22;70275;52.198;5.422;2023-05-23T00:15:12;14.40;83.10
17437;DHT22;70275;52.198;5.422;2023-05-23T00:17:44;14.40;83.10
17437;DHT22;70275;52.198;5.422;2023-05-23T00:20:13;14.30;83.10
17437;DHT22;70275;52.198;5.422;2023-05-23T00:22:42;14.30;83.10
17437;DHT22;70275;52.198;5.422;2023-05-23T00:25:12;14.30;83.10
17437;DHT22;70275;52.198;5.422;2023-05-23T00:27:41;14.30;83.10
17437;DHT22;70275;52.198;5.422;2023-05-23T00:30:11;14.20;83.10
17437;DHT22;70275;52.198;5.422;2023-05-23T00:32:42;14.20;83.10
17437;DHT22;70275;52.198;5.422;2023-05-23T00:35:11;14.10;83.10
17437;DHT22;70275;52.198;5.422;2023-05-23T00:37:41;14.10;83.10
17437;DHT22;70275;52.198;5.422;2023-05-23T00:40:11;14.20;83.10
17437;DHT22;70275;52.198;5.422;2023-05-23T00:42:40;14.20;83.10
17437;DHT22;70275;52.198;5.422;2023-05-23T00:45:10;14.10;83.10
17437;DHT22;70275;52.198;5.422;2023-05-23T00:47:40;14.10;83.10
17437;DHT22;70275;52.198;5.422;2023-05-23T00:50:13;14.20;83.10
17437;DHT22;70275;52.198;5.422;2023-05-23T00:52:44;14.20;83.10
17437;DHT22;70275;52.198;5.422;2023-05-23T00:55:15;14.20;83.10
17437;DHT22;70275;52.198;5.422;2023-05-23T00:57:44;14.10;83.10
17437;DHT22;70275;52.198;5.422;2023-05-23T01:00:14;14.10;83.10
17437;DHT22;70275;52.198;5.422;2023-05-23T01:02:47;14.10;83.10
17437;DHT22;70275;52.198;5.422;2023-05-23T01:05:20;14.00;83.10
17437;DHT22;70275;52.198;5.422;2023-05-23T01:07:50;14.00;83.10
17437;DHT22;70275;52.198;5.422;2023-05-23T01:10:22;14.10;83.10
17437;DHT22;70275;52.198;5.422;2023-05-23T01:13:04;14.10;83.10
17437;DHT22;70275;52.198;5.422;2023-05-23T01:15:44;14.20;83.10
17437;DHT22;70275;52.198;5.422;2023-05-23T01:18:26;14.20;83.10
17437;DHT22;70275;52.198;5.422;2023-05-23T01:21:06;14.20;83.10
17437;DHT22;70275;52.198;5.422;2023-05-23T01:24:02;14.30;83.10
17437;DHT22;70275;52.198;5.422;2023-05-23T01:27:00;14.30;83.10
17437;DHT22;70275;52.198;5.422;2023-05-23T01:29:38;14.30;83.10
17437;DHT22;70275;52.198;5.422;2023-05-23T01:32:13;14.20;83.10
17437;DHT22;70275;52.198;5.422;2023-05-23T01:34:48;14.20;83.10
17437;DHT22;70275;52.198;5.422;2023-05-23T01:37:20;14.20;83.10
17437;DHT22;70275;52.198;5.422;2023-05-23T01:39:49;14.30;83.10
17437;DHT22;70275;52.198;5.422;2023-05-23T01:42:18;14.30;83.10
17437;DHT22;70275;52.198;5.422;2023-05-23T01:44:50;14.20;83.10
17437;DHT22;70275;52.198;5.422;2023-05-23T01:47:20;14.10;83.10
17437;DHT22;70275;52.198;5.422;2023-05-23T01:49:50;14.10;83.10
17437;DHT22;70275;52.198;5.422;2023-05-23T01:52:21;14.20;83.10
17437;DHT22;70275;52.198;5.422;2023-05-23T01:54:52;14.20;83.10
17437;DHT22;70275;52.198;5.422;2023-05-23T01:57:22;14.10;83.10
17437;DHT22;70275;52.198;5.422;2023-05-23T01:59:54;14.00;83.10
17437;DHT22;70275;52.198;5.422;2023-05-23T02:02:23;14.00;83.10
17437;DHT22;70275;52.198;5.422;2023-05-23T02:04:52;13.90;83.10
17437;DHT22;70275;52.198;5.422;2023-05-23T02:07:22;13.90;83.10
17437;DHT22;70275;52.198;5.422;2023-05-23T02:09:51;13.90;83.10
17437;DHT22;70275;52.198;5.422;2023-05-23T02:12:20;13.90;83.10
17437;DHT22;70275;52.198;5.422;2023-05-23T02:14:49;14.00;83.10
17437;DHT22;70275;52.198;5.422;2023-05-23T02:17:22;14.00;83.10
17437;DHT22;70275;52.198;5.422;2023-05-23T02:19:51;14.00;83.10
17437;DHT22;70275;52.198;5.422;2023-05-23T02:22:22;14.00;83.10
17437;DHT22;70275;52.198;5.422;2023-05-23T02:24:52;13.90;83.10
17437;DHT22;70275;52.198;5.422;2023-05-23T02:27:21;13.90;83.10
17437;DHT22;70275;52.198;5.422;2023-05-23T02:29:49;14.00;83.10
17437;DHT22;70275;52.198;5.422;2023-05-23T02:32:21;14.00;83.10
17437;DHT22;70275;52.198;5.422;2023-05-23T02:34:50;14.10;83.10
17437;DHT22;70275;52.198;5.422;2023-05-23T02:37:19;14.10;83.10
17437;DHT22;70275;52.198;5.422;2023-05-23T02:39:48;14.20;83.10
17437;DHT22;70275;52.198;5.422;2023-05-23T02:42:17;14.10;83.10
17437;DHT22;70275;52.198;5.422;2023-05-23T02:44:46;14.20;83.10
17437;DHT22;70275;52.198;5.422;2023-05-23T02:47:15;14.20;83.10
17437;DHT22;70275;52.198;5.422;2023-05-23T02:49:46;14.10;83.10
17437;DHT22;70275;52.198;5.422;2023-05-23T02:52:15;14.10;83.10
17437;DHT22;70275;52.198;5.422;2023-05-23T02:54:44;14.10;83.10
17437;DHT22;70275;52.198;5.422;2023-05-23T02:57:13;14.10;83.10
17437;DHT22;70275;52.198;5.422;2023-05-23T02:59:42;14.20;83.10
17437;DHT22;70275;52.198;5.422;2023-05-23T03:02:11;14.30;83.10
17437;DHT22;70275;52.198;5.422;2023-05-23T03:04:40;14.20;83.10
17437;DHT22;70275;52.198;5.422;2023-05-23T03:07:11;14.20;83.10
17437;DHT22;70275;52.198;5.422;2023-05-23T03:09:41;14.10;83.10
17437;DHT22;70275;52.198;5.422;2023-05-23T03:12:10;14.10;83.10
17437;DHT22;70275;52.198;5.422;2023-05-23T03:14:38;14.10;83.10
17437;DHT22;70275;52.198;5.422;2023-05-23T03:17:07;14.00;83.10
17437;DHT22;70275;52.198;5.422;2023-05-23T03:19:36;13.90;83.10
17437;DHT22;70275;52.198;5.422;2023-05-23T03:22:05;13.90;83.10
17437;DHT22;70275;52.198;5.422;2023-05-23T03:24:37;13.80;83.10
17437;DHT22;70275;52.198;5.422;2023-05-23T03:27:05;13.80;83.10
17437;DHT22;70275;52.198;5.422;2023-05-23T03:29:34;13.80;83.10
17437;DHT22;70275;52.198;5.422;2023-05-23T03:32:04;13.70;83.10
17437;DHT22;70275;52.198;5.422;2023-05-23T03:34:34;13.70;83.10
17437;DHT22;70275;52.198;5.422;2023-05-23T03:37:03;13.80;83.10
17437;DHT22;70275;52.198;5.422;2023-05-23T03:39:32;13.80;83.10
17437;DHT22;70275;52.198;5.422;2023-05-23T03:42:04;13.70;83.10
17437;DHT22;70275;52.198;5.422;2023-05-23T03:44:33;13.70;83.10
17437;DHT22;70275;52.198;5.422;2023-05-23T03:47:02;13.60;83.10
17437;DHT22;70275;52.198;5.422;2023-05-23T03:49:32;13.60;83.10
17437;DHT22;70275;52.198;5.422;2023-05-23T03:52:01;13.60;83.10
17437;DHT22;70275;52.198;5.422;2023-05-23T03:54:30;13.50;83.10
17437;DHT22;70275;52.198;5.422;2023-05-23T03:56:59;13.50;83.10
17437;DHT22;70275;52.198;5.422;2023-05-23T03:59:30;13.50;83.10
17437;DHT22;70275;52.198;5.422;2023-05-23T04:02:00;13.60;83.10
17437;DHT22;70275;52.198;5.422;2023-05-23T04:04:29;13.50;83.10
17437;DHT22;70275;52.198;5.422;2023-05-23T04:06:58;13.50;83.10
17437;DHT22;70275;52.198;5.422;2023-05-23T04:09:27;13.60;83.10
17437;DHT22;70275;52.198;5.422;2023-05-23T04:11:57;13.50;83.10
17437;DHT22;70275;52.198;5.422;2023-05-23T04:14:26;13.50;83.10
17437;DHT22;70275;52.198;5.422;2023-05-23T04:16:57;13.40;83.10
17437;DHT22;70275;52.198;5.422;2023-05-23T04:19:27;13.40;83.10
17437;DHT22;70275;52.198;5.422;2023-05-23T04:21:56;13.40;83.10
17437;DHT22;70275;52.198;5.422;2023-05-23T04:24:25;13.30;83.10
17437;DHT22;70275;52.198;5.422;2023-05-23T04:26:54;13.40;83.10
17437;DHT22;70275;52.198;5.422;2023-05-23T04:29:24;13.40;83.10
17437;DHT22;70275;52.198;5.422;2023-05-23T04:31:58;13.30;83.10
17437;DHT22;70275;52.198;5.422;2023-05-23T04:34:27;13.30;83.10
17437;DHT22;70275;52.198;5.422;2023-05-23T04:36:58;13.30;83.10
17437;DHT22;70275;52.198;5.422;2023-05-23T04:39:27;13.30;83.10
17437;DHT22;70275;52.198;5.422;2023-05-23T04:41:57;13.30;83.10
17437;DHT22;70275;52.198;5.422;2023-05-23T04:44:26;13.20;83.10
17437;DHT22;70275;52.198;5.422;2023-05-23T04:46:55;13.20;83.10
17437;DHT22;70275;52.198;5.422;2023-05-23T04:49:27;13.20;83.10
17437;DHT22;70275;52.198;5.422;2023-05-23T04:51:58;13.10;83.10
17437;DHT22;70275;52.198;5.422;2023-05-23T04:54:27;13.10;83.10
17437;DHT22;70275;52.198;5.422;2023-05-23T04:56:56;13.20;83.10
17437;DHT22;70275;52.198;5.422;2023-05-23T04:59:25;13.10;83.10
17437;DHT22;70275;52.198;5.422;2023-05-23T05:01:54;13.00;83.10
17437;DHT22;70275;52.198;5.422;2023-05-23T05:04:25;13.00;83.10
17437;DHT22;70275;52.198;5.422;2023-05-23T05:06:54;13.00;83.10
17437;DHT22;70275;52.198;5.422;2023-05-23T05:09:23;13.00;83.10
17437;DHT22;70275;52.198;5.422;2023-05-23T05:11:52;12.90;83.10
17437;DHT22;70275;52.198;5.422;2023-05-23T05:14:21;12.90;82.90
17437;DHT22;70275;52.198;5.422;2023-05-23T05:16:50;13.00;82.60
17437;DHT22;70275;52.198;5.422;2023-05-23T05:19:22;13.00;82.50
17437;DHT22;70275;52.198;5.422;2023-05-23T05:21:53;13.10;82.30
17437;DHT22;70275;52.198;5.422;2023-05-23T05:24:22;13.00;81.20
17437;DHT22;70275;52.198;5.422;2023-05-23T05:26:52;13.00;80.50
17437;DHT22;70275;52.198;5.422;2023-05-23T05:29:22;13.00;80.20
17437;DHT22;70275;52.198;5.422;2023-05-23T05:31:51;13.00;79.20
17437;DHT22;70275;52.198;5.422;2023-05-23T05:34:20;13.00;79.80
17437;DHT22;70275;52.198;5.422;2023-05-23T05:36:52;13.00;80.20
17437;DHT22;70275;52.198;5.422;2023-05-23T05:39:23;13.00;80.20
17437;DHT22;70275;52.198;5.422;2023-05-23T05:41:53;13.10;80.50
17437;DHT22;70275;52.198;5.422;2023-05-23T05:44:22;13.20;79.90
17437;DHT22;70275;52.198;5.422;2023-05-23T05:46:51;13.20;79.90
17437;DHT22;70275;52.198;5.422;2023-05-23T05:49:20;13.10;80.60
17437;DHT22;70275;52.198;5.422;2023-05-23T05:51:52;13.10;80.20
17437;DHT22;70275;52.198;5.422;2023-05-23T05:54:21;13.10;80.10
17437;DHT22;70275;52.198;5.422;2023-05-23T05:56:50;13.30;79.70
17437;DHT22;70275;52.198;5.422;2023-05-23T05:59:19;13.10;79.30
17437;DHT22;70275;52.198;5.422;2023-05-23T06:01:48;13.00;79.00
17437;DHT22;70275;52.198;5.422;2023-05-23T06:04:17;13.20;77.90
17437;DHT22;70275;52.198;5.422;2023-05-23T06:06:46;13.10;77.10
17437;DHT22;70275;52.198;5.422;2023-05-23T06:09:18;12.90;77.20
17437;DHT22;70275;52.198;5.422;2023-05-23T06:11:47;12.90;77.70
17437;DHT22;70275;52.198;5.422;2023-05-23T06:14:16;12.90;77.70
17437;DHT22;70275;52.198;5.422;2023-05-23T06:16:45;12.90;78.60
17437;DHT22;70275;52.198;5.422;2023-05-23T06:19:14;12.90;79.00
17437;DHT22;70275;52.198;5.422;2023-05-23T06:21:42;13.00;79.20
17437;DHT22;70275;52.198;5.422;2023-05-23T06:24:11;13.10;78.90
17437;DHT22;70275;52.198;5.422;2023-05-23T06:26:43;12.90;79.30
17437;DHT22;70275;52.198;5.422;2023-05-23T06:29:12;13.00;79.40
17437;DHT22;70275;52.198;5.422;2023-05-23T06:31:41;13.00;79.60
17437;DHT22;70275;52.198;5.422;2023-05-23T06:34:10;12.90;79.50
17437;DHT22;70275;52.198;5.422;2023-05-23T06:36:39;13.00;79.50
17437;DHT22;70275;52.198;5.422;2023-05-23T06:39:08;13.00;79.70
17437;DHT22;70275;52.198;5.422;2023-05-23T06:41:38;13.00;79.80
17437;DHT22;70275;52.198;5.422;2023-05-23T06:44:10;12.90;80.30
17437;DHT22;70275;52.198;5.422;2023-05-23T06:46:39;12.90;80.20
17437;DHT22;70275;52.198;5.422;2023-05-23T06:49:07;12.80;79.90
17437;DHT22;70275;52.198;5.422;2023-05-23T06:51:37;12.80;79.50
17437;DHT22;70275;52.198;5.422;2023-05-23T06:54:06;12.90;79.70
17437;DHT22;70275;52.198;5.422;2023-05-23T06:56:35;12.80;80.20
17437;DHT22;70275;52.198;5.422;2023-05-23T06:59:03;12.70;80.70
17437;DHT22;70275;52.198;5.422;2023-05-23T07:01:35;12.70;81.30
17437;DHT22;70275;52.198;5.422;2023-05-23T07:04:04;12.70;81.90
17437;DHT22;70275;52.198;5.422;2023-05-23T07:06:34;12.40;82.60
17437;DHT22;70275;52.198;5.422;2023-05-23T07:09:04;12.40;83.00
17437;DHT22;70275;52.198;5.422;2023-05-23T07:11:33;12.50;82.30
17437;DHT22;70275;52.198;5.422;2023-05-23T07:14:04;12.60;81.10
17437;DHT22;70275;52.198;5.422;2023-05-23T07:16:35;12.70;80.70
17437;DHT22;70275;52.198;5.422;2023-05-23T07:19:04;12.70;79.80
17437;DHT22;70275;52.198;5.422;2023-05-23T07:21:33;12.80;78.70
17437;DHT22;70275;52.198;5.422;2023-05-23T07:24:02;13.00;77.50
17437;DHT22;70275;52.198;5.422;2023-05-23T07:26:31;13.20;75.00
17437;DHT22;70275;52.198;5.422;2023-05-23T07:29:00;13.40;74.60
17437;DHT22;70275;52.198;5.422;2023-05-23T07:31:30;13.40;74.80
17437;DHT22;70275;52.198;5.422;2023-05-23T07:34:01;13.30;75.00
17437;DHT22;70275;52.198;5.422;2023-05-23T07:36:31;13.40;74.70
17437;DHT22;70275;52.198;5.422;2023-05-23T07:39:02;13.40;73.80
17437;DHT22;70275;52.198;5.422;2023-05-23T07:41:31;13.30;71.60
17437;DHT22;70275;52.198;5.422;2023-05-23T07:44:00;13.50;70.80
17437;DHT22;70275;52.198;5.422;2023-05-23T07:46:29;13.40;70.30
17437;DHT22;70275;52.198;5.422;2023-05-23T07:49:00;13.50;71.90
17437;DHT22;70275;52.198;5.422;2023-05-23T07:51:29;13.80;70.60
17437;DHT22;70275;52.198;5.422;2023-05-23T07:53:58;13.60;71.90
17437;DHT22;70275;52.198;5.422;2023-05-23T07:56:28;13.70;71.70
17437;DHT22;70275;52.198;5.422;2023-05-23T07:58:57;13.40;71.80
17437;DHT22;70275;52.198;5.422;2023-05-23T08:01:26;13.60;71.40
17437;DHT22;70275;52.198;5.422;2023-05-23T08:03:55;13.80;71.70
17437;DHT22;70275;52.198;5.422;2023-05-23T08:06:27;13.80;70.80
17437;DHT22;70275;52.198;5.422;2023-05-23T08:08:56;14.00;69.40
17437;DHT22;70275;52.198;5.422;2023-05-23T08:11:24;13.70;71.00
17437;DHT22;70275;52.198;5.422;2023-05-23T08:13:55;13.90;70.30
17437;DHT22;70275;52.198;5.422;2023-05-23T08:16:24;13.70;71.30
17437;DHT22;70275;52.198;5.422;2023-05-23T08:18:53;13.30;72.80
17437;DHT22;70275;52.198;5.422;2023-05-23T08:21:26;13.30;72.20
17437;DHT22;70275;52.198;5.422;2023-05-23T08:23:55;13.80;71.50
17437;DHT22;70275;52.198;5.422;2023-05-23T08:26:24;13.90;69.60
17437;DHT22;70275;52.198;5.422;2023-05-23T08:28:59;14.00;68.50
17437;DHT22;70275;52.198;5.422;2023-05-23T08:31:30;14.00;67.50
17437;DHT22;70275;52.198;5.422;2023-05-23T08:33:59;14.00;69.20
17437;DHT22;70275;52.198;5.422;2023-05-23T08:36:31;13.80;67.90
17437;DHT22;70275;52.198;5.422;2023-05-23T08:39:01;13.80;68.30
17437;DHT22;70275;52.198;5.422;2023-05-23T08:41:30;14.00;66.80
17437;DHT22;70275;52.198;5.422;2023-05-23T08:43:59;14.00;66.80
17437;DHT22;70275;52.198;5.422;2023-05-23T08:46:29;14.20;66.70
17437;DHT22;70275;52.198;5.422;2023-05-23T08:49:01;14.10;68.00
17437;DHT22;70275;52.198;5.422;2023-05-23T08:51:35;13.80;69.20
17437;DHT22;70275;52.198;5.422;2023-05-23T08:54:06;13.80;69.90
17437;DHT22;70275;52.198;5.422;2023-05-23T08:56:38;13.80;69.40
17437;DHT22;70275;52.198;5.422;2023-05-23T08:59:08;14.00;69.60
17437;DHT22;70275;52.198;5.422;2023-05-23T09:01:39;14.20;66.70
17437;DHT22;70275;52.198;5.422;2023-05-23T09:04:11;14.10;65.40
17437;DHT22;70275;52.198;5.422;2023-05-23T09:06:42;14.50;64.30
17437;DHT22;70275;52.198;5.422;2023-05-23T09:09:11;14.90;63.10
17437;DHT22;70275;52.198;5.422;2023-05-23T09:11:41;15.10;61.10
17437;DHT22;70275;52.198;5.422;2023-05-23T09:14:11;14.90;62.10
17437;DHT22;70275;52.198;5.422;2023-05-23T09:16:45;14.60;61.70
17437;DHT22;70275;52.198;5.422;2023-05-23T09:19:18;14.90;61.30
17437;DHT22;70275;52.198;5.422;2023-05-23T09:21:53;15.20;61.40
17437;DHT22;70275;52.198;5.422;2023-05-23T09:24:22;15.00;61.90
17437;DHT22;70275;52.198;5.422;2023-05-23T09:26:51;15.00;63.90
17437;DHT22;70275;52.198;5.422;2023-05-23T09:29:19;15.00;64.60
17437;DHT22;70275;52.198;5.422;2023-05-23T09:31:48;14.90;65.30
17437;DHT22;70275;52.198;5.422;2023-05-23T09:34:17;15.00;63.50
17437;DHT22;70275;52.198;5.422;2023-05-23T09:36:46;15.10;62.90
17437;DHT22;70275;52.198;5.422;2023-05-23T09:39:18;14.50;62.90
17437;DHT22;70275;52.198;5.422;2023-05-23T09:41:47;14.70;62.40
17437;DHT22;70275;52.198;5.422;2023-05-23T09:44:22;14.40;63.50
17437;DHT22;70275;52.198;5.422;2023-05-23T09:46:51;14.80;62.20
17437;DHT22;70275;52.198;5.422;2023-05-23T09:49:20;14.80;61.80
17437;DHT22;70275;52.198;5.422;2023-05-23T09:51:59;14.50;63.40
17437;DHT22;70275;52.198;5.422;2023-05-23T09:54:31;14.40;64.70
17437;DHT22;70275;52.198;5.422;2023-05-23T09:57:01;14.50;64.50
17437;DHT22;70275;52.198;5.422;2023-05-23T09:59:33;14.50;63.30
17437;DHT22;70275;52.198;5.422;2023-05-23T10:02:09;14.60;62.90
17437;DHT22;70275;52.198;5.422;2023-05-23T10:04:40;15.20;59.90
17437;DHT22;70275;52.198;5.422;2023-05-23T10:07:13;15.60;57.60
17437;DHT22;70275;52.198;5.422;2023-05-23T10:09:54;14.90;60.00
17437;DHT22;70275;52.198;5.422;2023-05-23T10:12:43;15.10;60.70
17437;DHT22;70275;52.198;5.422;2023-05-23T10:15:17;15.10;62.60
17437;DHT22;70275;52.198;5.422;2023-05-23T10:18:00;14.60;65.60
17437;DHT22;70275;52.198;5.422;2023-05-23T10:20:32;14.40;65.80
17437;DHT22;70275;52.198;5.422;2023-05-23T10:23:03;14.60;64.40
17437;DHT22;70275;52.198;5.422;2023-05-23T10:25:36;14.70;64.00
17437;DHT22;70275;52.198;5.422;2023-05-23T10:28:06;15.00;63.70
17437;DHT22;70275;52.198;5.422;2023-05-23T10:30:36;15.50;61.20
17437;DHT22;70275;52.198;5.422;2023-05-23T10:33:06;15.30;59.40
17437;DHT22;70275;52.198;5.422;2023-05-23T10:35:49;14.90;60.30
17437;DHT22;70275;52.198;5.422;2023-05-23T10:38:29;15.50;59.30
17437;DHT22;70275;52.198;5.422;2023-05-23T10:41:09;16.20;58.30
17437;DHT22;70275;52.198;5.422;2023-05-23T10:43:47;15.50;61.10
17437;DHT22;70275;52.198;5.422;2023-05-23T10:46:22;15.00;62.90
17437;DHT22;70275;52.198;5.422;2023-05-23T10:49:11;15.30;62.50
17437;DHT22;70275;52.198;5.422;2023-05-23T10:51:40;15.00;61.80
17437;DHT22;70275;52.198;5.422;2023-05-23T10:54:10;15.80;60.20
17437;DHT22;70275;52.198;5.422;2023-05-23T10:56:41;15.60;60.50
17437;DHT22;70275;52.198;5.422;2023-05-23T10:59:19;15.40;60.80
17437;DHT22;70275;52.198;5.422;2023-05-23T11:01:50;15.20;60.30
17437;DHT22;70275;52.198;5.422;2023-05-23T11:04:24;15.10;58.20
17437;DHT22;70275;52.198;5.422;2023-05-23T11:06:55;15.30;57.90
17437;DHT22;70275;52.198;5.422;2023-05-23T11:09:24;16.10;56.80
17437;DHT22;70275;52.198;5.422;2023-05-23T11:12:00;15.60;57.40
17437;DHT22;70275;52.198;5.422;2023-05-23T11:14:52;16.30;56.90
17437;DHT22;70275;52.198;5.422;2023-05-23T11:17:30;16.50;56.20
17437;DHT22;70275;52.198;5.422;2023-05-23T11:20:03;15.80;58.40
17437;DHT22;70275;52.198;5.422;2023-05-23T11:22:34;15.70;59.80
17437;DHT22;70275;52.198;5.422;2023-05-23T11:25:06;15.50;59.80
17437;DHT22;70275;52.198;5.422;2023-05-23T11:27:40;16.00;59.40
17437;DHT22;70275;52.198;5.422;2023-05-23T11:30:11;15.60;60.30
17437;DHT22;70275;52.198;5.422;2023-05-23T11:32:48;15.10;60.80
17437;DHT22;70275;52.198;5.422;2023-05-23T11:35:19;15.90;59.00
17437;DHT22;70275;52.198;5.422;2023-05-23T11:37:49;15.70;58.00
17437;DHT22;70275;52.198;5.422;2023-05-23T11:40:28;15.10;61.10
17437;DHT22;70275;52.198;5.422;2023-05-23T11:43:02;15.20;59.90
17437;DHT22;70275;52.198;5.422;2023-05-23T11:45:34;14.90;61.30
17437;DHT22;70275;52.198;5.422;2023-05-23T11:48:07;15.20;60.10
17437;DHT22;70275;52.198;5.422;2023-05-23T11:50:44;15.50;57.70
17437;DHT22;70275;52.198;5.422;2023-05-23T11:53:16;15.80;57.10
17437;DHT22;70275;52.198;5.422;2023-05-23T11:55:50;16.10;54.70
17437;DHT22;70275;52.198;5.422;2023-05-23T11:58:28;16.70;52.70
17437;DHT22;70275;52.198;5.422;2023-05-23T12:01:00;16.60;53.60
17437;DHT22;70275;52.198;5.422;2023-05-23T12:03:29;16.80;50.10
17437;DHT22;70275;52.198;5.422;2023-05-23T12:05:59;17.20;50.20
17437;DHT22;70275;52.198;5.422;2023-05-23T12:08:28;16.10;52.40
17437;DHT22;70275;52.198;5.422;2023-05-23T12:10:58;15.40;53.30
17437;DHT22;70275;52.198;5.422;2023-05-23T12:13:31;16.50;52.10
17437;DHT22;70275;52.198;5.422;2023-05-23T12:16:01;16.40;54.10
17437;DHT22;70275;52.198;5.422;2023-05-23T12:18:31;15.90;55.30
17437;DHT22;70275;52.198;5.422;2023-05-23T12:21:01;15.50;56.40
17437;DHT22;70275;52.198;5.422;2023-05-23T12:23:31;15.30;57.60
17437;DHT22;70275;52.198;5.422;2023-05-23T12:26:03;16.30;56.40
17437;DHT22;70275;52.198;5.422;2023-05-23T12:28:38;17.30;53.90
17437;DHT22;70275;52.198;5.422;2023-05-23T12:31:10;18.10;52.00
17437;DHT22;70275;52.198;5.422;2023-05-23T12:33:41;16.60;53.70
17437;DHT22;70275;52.198;5.422;2023-05-23T12:36:12;16.60;53.90
17437;DHT22;70275;52.198;5.422;2023-05-23T12:38:42;16.70;54.30
17437;DHT22;70275;52.198;5.422;2023-05-23T12:41:15;16.40;53.40
17437;DHT22;70275;52.198;5.422;2023-05-23T12:43:52;15.60;55.90
17437;DHT22;70275;52.198;5.422;2023-05-23T12:46:23;14.80;58.40
17437;DHT22;70275;52.198;5.422;2023-05-23T12:48:53;15.10;58.10
17437;DHT22;70275;52.198;5.422;2023-05-23T12:51:23;15.90;54.40
17437;DHT22;70275;52.198;5.422;2023-05-23T12:53:53;16.50;53.10
17437;DHT22;70275;52.198;5.422;2023-05-23T12:56:22;16.80;52.70
17437;DHT22;70275;52.198;5.422;2023-05-23T12:58:53;16.70;51.60
17437;DHT22;70275;52.198;5.422;2023-05-23T13:01:22;16.10;53.00
17437;DHT22;70275;52.198;5.422;2023-05-23T13:03:51;15.70;53.50
17437;DHT22;70275;52.198;5.422;2023-05-23T13:06:20;15.90;55.40
17437;DHT22;70275;52.198;5.422;2023-05-23T13:08:49;17.60;52.10
17437;DHT22;70275;52.198;5.422;2023-05-23T13:11:19;17.20;51.50
17437;DHT22;70275;52.198;5.422;2023-05-23T13:13:48;16.30;54.80
17437;DHT22;70275;52.198;5.422;2023-05-23T13:16:20;15.60;56.90
17437;DHT22;70275;52.198;5.422;2023-05-23T13:18:49;14.80;58.60
17437;DHT22;70275;52.198;5.422;2023-05-23T13:21:18;14.80;58.80
17437;DHT22;70275;52.198;5.422;2023-05-23T13:23:47;15.30;57.00
17437;DHT22;70275;52.198;5.422;2023-05-23T13:26:16;16.60;53.80
17437;DHT22;70275;52.198;5.422;2023-05-23T13:28:45;16.80;52.80
17437;DHT22;70275;52.198;5.422;2023-05-23T13:31:14;16.80;52.30
17437;DHT22;70275;52.198;5.422;2023-05-23T13:33:46;16.70;51.60
17437;DHT22;70275;52.198;5.422;2023-05-23T13:36:15;16.50;49.70
17437;DHT22;70275;52.198;5.422;2023-05-23T13:38:44;16.10;51.90
17437;DHT22;70275;52.198;5.422;2023-05-23T13:41:13;16.30;52.10
17437;DHT22;70275;52.198;5.422;2023-05-23T13:43:42;16.60;52.20
17437;DHT22;70275;52.198;5.422;2023-05-23T13:46:11;17.50;49.80
17437;DHT22;70275;52.198;5.422;2023-05-23T13:48:40;17.00;50.60
17437;DHT22;70275;52.198;5.422;2023-05-23T13:51:12;16.10;52.30
17437;DHT22;70275;52.198;5.422;2023-05-23T13:53:41;16.50;53.00
17437;DHT22;70275;52.198;5.422;2023-05-23T13:56:10;17.70;46.30
17437;DHT22;70275;52.198;5.422;2023-05-23T13:58:39;17.50;47.80
17437;DHT22;70275;52.198;5.422;2023-05-23T14:01:11;17.70;46.60
17437;DHT22;70275;52.198;5.422;2023-05-23T14:03:40;18.00;46.70
17437;DHT22;70275;52.198;5.422;2023-05-23T14:06:11;17.60;47.90
17437;DHT22;70275;52.198;5.422;2023-05-23T14:08:40;17.10;47.00
17437;DHT22;70275;52.198;5.422;2023-05-23T14:11:09;16.60;50.10
17437;DHT22;70275;52.198;5.422;2023-05-23T14:13:38;17.40;47.60
17437;DHT22;70275;52.198;5.422;2023-05-23T14:16:07;15.90;51.80
17437;DHT22;70275;52.198;5.422;2023-05-23T14:18:36;16.30;51.40
17437;DHT22;70275;52.198;5.422;2023-05-23T14:21:05;16.50;47.90
17437;DHT22;70275;52.198;5.422;2023-05-23T14:23:36;17.10;45.90
17437;DHT22;70275;52.198;5.422;2023-05-23T14:26:05;17.10;47.10
17437;DHT22;70275;52.198;5.422;2023-05-23T14:28:34;16.10;49.70
17437;DHT22;70275;52.198;5.422;2023-05-23T14:31:03;15.10;51.40
17437;DHT22;70275;52.198;5.422;2023-05-23T14:33:33;15.50;51.40
17437;DHT22;70275;52.198;5.422;2023-05-23T14:36:02;15.60;51.60
17437;DHT22;70275;52.198;5.422;2023-05-23T14:38:31;16.30;50.50
17437;DHT22;70275;52.198;5.422;2023-05-23T14:41:03;16.60;51.30
17437;DHT22;70275;52.198;5.422;2023-05-23T14:43:32;16.90;51.80
17437;DHT22;70275;52.198;5.422;2023-05-23T14:46:01;16.90;51.80
17437;DHT22;70275;52.198;5.422;2023-05-23T14:48:31;16.20;49.40
17437;DHT22;70275;52.198;5.422;2023-05-23T14:51:00;16.20;47.90
17437;DHT22;70275;52.198;5.422;2023-05-23T14:53:29;15.80;48.20
17437;DHT22;70275;52.198;5.422;2023-05-23T14:55:58;16.60;47.50
17437;DHT22;70275;52.198;5.422;2023-05-23T14:58:29;16.70;44.80
17437;DHT22;70275;52.198;5.422;2023-05-23T15:00:58;16.00;46.50
17437;DHT22;70275;52.198;5.422;2023-05-23T15:03:28;16.30;46.10
17437;DHT22;70275;52.198;5.422;2023-05-23T15:05:58;16.60;44.60
17437;DHT22;70275;52.198;5.422;2023-05-23T15:08:29;16.60;45.20
17437;DHT22;70275;52.198;5.422;2023-05-23T15:10:58;17.20;45.90
17437;DHT22;70275;52.198;5.422;2023-05-23T15:13:30;17.90;44.20
17437;DHT22;70275;52.198;5.422;2023-05-23T15:15:59;18.50;43.40
17437;DHT22;70275;52.198;5.422;2023-05-23T15:18:28;17.70;44.80
17437;DHT22;70275;52.198;5.422;2023-05-23T15:20:57;18.10;45.70
17437;DHT22;70275;52.198;5.422;2023-05-23T15:23:26;18.00;44.20
17437;DHT22;70275;52.198;5.422;2023-05-23T15:25:55;17.10;45.40
17437;DHT22;70275;52.198;5.422;2023-05-23T15:28:25;16.50;46.70
17437;DHT22;70275;52.198;5.422;2023-05-23T15:30:56;16.30;47.50
17437;DHT22;70275;52.198;5.422;2023-05-23T15:33:25;16.30;48.60
17437;DHT22;70275;52.198;5.422;2023-05-23T15:35:54;17.20;47.30
17437;DHT22;70275;52.198;5.422;2023-05-23T15:38:24;18.20;45.70
17437;DHT22;70275;52.198;5.422;2023-05-23T15:40:53;17.90;45.10
17437;DHT22;70275;52.198;5.422;2023-05-23T15:43:24;18.20;46.50
17437;DHT22;70275;52.198;5.422;2023-05-23T15:45:55;17.10;46.80
17437;DHT22;70275;52.198;5.422;2023-05-23T15:48:24;15.50;50.40
17437;DHT22;70275;52.198;5.422;2023-05-23T15:50:54;15.80;50.20